Pleasant Valley, West Virginia
Current Conditions -  °F | °C
As of 5:53 PM on Thursday 27 Nov 2014 (Local Time) from KCKB Reporting Station
Light Snow Light Snow  
Wind Chill: 23°   Ceiling: 1600
Heat Index: 31°   Visibility: 2.5mi
Dew Point: 29°   Wind: 8mph
Humidity: 92%   Direction: 290°WNW
Pressure: 30.19"   Gusts: NA
Location:  39.485°N, 80.1426°W
Report Text: KCKB 272253Z 29007KT 2 1/2SM -SN BR SCT009 BKN016 OVC023 M01/M02 A3019 RMK AO2 SLP228 P0000 T10061017
Loading
Personal Weather Stations






























Interactive Weather Map New forecast layout! Learn more

10-Day Weather Forecast

Advertisements
Track Severe Weather on mobile